Terminal Aerodrome Forecast
Issued by NWS

Home | Current Version | Previous Version | Text Only | Print | Product List | Glossary On
Versions: 1 2 3 4 5 6 7 8 9 10 11 12 13 14 15 16 17 18 19 20 21 22 23 24 25 26 27 28 29 30 31 32 33 34 35 36 37 38 39 40 41 42
000
FTPA31 PHFO 300000 AAA
TAFLNY
TAF AMD
PHNY 300001Z 3000/3024 18015KT P6SM SCT020
      TEMPO 3000/3002 BKN015
     FM300400 22005KT P6SM FEW020 SCT035
     FM301000 27005KT P6SM VCSH SCT010 BKN020
     FM302000 02010KT P6SM SCT015 BKN035
      AMD NOT SKED=

USA.gov is the U.S. government's official web portal to all federal, state and local government web resources and services.